Terminal Aerodrome Forecast
Issued by NWS Cleveland, OH

Home | Current Version | Previous Version | Graphics & Text | Print | Product List | Glossary On
Versions: 1 2 3 4 5 6 7 8 9 10 11 12 13 14 15 16 17
307
FTUS41 KCLE 262211 AAA
TAFYNG
TAF AMD
KYNG 262211Z 2622/2718 27010KT P6SM SCT025 BKN040
     FM270800 11005KT 6SM -SHRA VCTS SCT025CB OVC035
     FM271400 03006KT P6SM BKN008=

USA.gov is the U.S. government's official web portal to all federal, state and local government web resources and services.